sensor_id;sensor_type;location;lat;lon;timestamp;P1;durP1;ratioP1;P2;durP2;ratioP2
12567;SDS011;6349;50.904;6.136;2023-07-31T00:01:20;5.10;;;2.97;;
12567;SDS011;6349;50.904;6.136;2023-07-31T00:03:21;5.60;;;3.00;;
12567;SDS011;6349;50.904;6.136;2023-07-31T00:05:22;6.43;;;3.03;;
12567;SDS011;6349;50.904;6.136;2023-07-31T00:07:22;4.65;;;2.88;;
12567;SDS011;6349;50.904;6.136;2023-07-31T00:09:23;7.55;;;3.20;;
12567;SDS011;6349;50.904;6.136;2023-07-31T00:11:23;5.32;;;3.05;;
12567;SDS011;6349;50.904;6.136;2023-07-31T00:13:24;5.28;;;2.85;;
12567;SDS011;6349;50.904;6.136;2023-07-31T00:15:24;4.38;;;2.55;;
12567;SDS011;6349;50.904;6.136;2023-07-31T00:17:25;7.10;;;2.67;;
12567;SDS011;6349;50.904;6.136;2023-07-31T00:19:26;8.23;;;3.00;;
12567;SDS011;6349;50.904;6.136;2023-07-31T00:21:26;7.47;;;3.10;;
12567;SDS011;6349;50.904;6.136;2023-07-31T00:23:27;4.95;;;2.67;;
12567;SDS011;6349;50.904;6.136;2023-07-31T00:25:27;5.15;;;3.03;;
12567;SDS011;6349;50.904;6.136;2023-07-31T00:27:28;4.18;;;2.78;;
12567;SDS011;6349;50.904;6.136;2023-07-31T00:29:28;3.03;;;2.35;;
12567;SDS011;6349;50.904;6.136;2023-07-31T00:31:29;4.00;;;2.55;;
12567;SDS011;6349;50.904;6.136;2023-07-31T00:33:30;4.28;;;2.75;;
12567;SDS011;6349;50.904;6.136;2023-07-31T00:35:31;4.63;;;2.78;;
12567;SDS011;6349;50.904;6.136;2023-07-31T00:37:31;3.67;;;2.58;;
12567;SDS011;6349;50.904;6.136;2023-07-31T00:39:33;5.40;;;2.58;;
12567;SDS011;6349;50.904;6.136;2023-07-31T00:41:34;5.53;;;3.00;;
12567;SDS011;6349;50.904;6.136;2023-07-31T00:43:34;4.65;;;2.63;;
12567;SDS011;6349;50.904;6.136;2023-07-31T00:45:35;6.68;;;3.20;;
12567;SDS011;6349;50.904;6.136;2023-07-31T00:47:36;3.97;;;2.47;;
12567;SDS011;6349;50.904;6.136;2023-07-31T00:49:36;5.10;;;2.97;;
12567;SDS011;6349;50.904;6.136;2023-07-31T00:51:37;5.82;;;3.30;;
12567;SDS011;6349;50.904;6.136;2023-07-31T00:53:38;9.02;;;3.20;;
12567;SDS011;6349;50.904;6.136;2023-07-31T00:55:40;4.32;;;2.63;;
12567;SDS011;6349;50.904;6.136;2023-07-31T00:57:41;4.65;;;2.67;;
12567;SDS011;6349;50.904;6.136;2023-07-31T00:59:42;4.55;;;2.97;;
12567;SDS011;6349;50.904;6.136;2023-07-31T01:01:42;3.95;;;2.78;;
12567;SDS011;6349;50.904;6.136;2023-07-31T01:03:43;6.82;;;2.70;;
12567;SDS011;6349;50.904;6.136;2023-07-31T01:05:56;5.15;;;2.47;;
12567;SDS011;6349;50.904;6.136;2023-07-31T01:08:02;5.35;;;2.88;;
12567;SDS011;6349;50.904;6.136;2023-07-31T01:10:21;4.10;;;2.90;;
12567;SDS011;6349;50.904;6.136;2023-07-31T01:12:26;3.33;;;2.58;;
12567;SDS011;6349;50.904;6.136;2023-07-31T01:14:29;4.90;;;3.35;;
12567;SDS011;6349;50.904;6.136;2023-07-31T01:16:30;6.97;;;2.90;;
12567;SDS011;6349;50.904;6.136;2023-07-31T01:18:30;6.07;;;2.78;;
12567;SDS011;6349;50.904;6.136;2023-07-31T01:20:31;4.70;;;3.05;;
12567;SDS011;6349;50.904;6.136;2023-07-31T01:25:15;3.90;;;2.45;;
12567;SDS011;6349;50.904;6.136;2023-07-31T01:27:35;5.25;;;2.80;;
12567;SDS011;6349;50.904;6.136;2023-07-31T01:30:10;5.55;;;2.50;;
12567;SDS011;6349;50.904;6.136;2023-07-31T01:32:17;4.38;;;2.67;;
12567;SDS011;6349;50.904;6.136;2023-07-31T01:34:18;4.38;;;2.80;;
12567;SDS011;6349;50.904;6.136;2023-07-31T01:36:21;5.50;;;3.00;;
12567;SDS011;6349;50.904;6.136;2023-07-31T01:38:22;4.45;;;3.10;;
12567;SDS011;6349;50.904;6.136;2023-07-31T01:40:22;4.93;;;2.70;;
12567;SDS011;6349;50.904;6.136;2023-07-31T01:42:23;4.63;;;2.83;;
12567;SDS011;6349;50.904;6.136;2023-07-31T01:44:24;4.60;;;3.03;;
12567;SDS011;6349;50.904;6.136;2023-07-31T01:46:24;5.20;;;3.13;;
12567;SDS011;6349;50.904;6.136;2023-07-31T01:48:25;4.50;;;2.83;;
12567;SDS011;6349;50.904;6.136;2023-07-31T01:50:25;4.60;;;2.63;;
12567;SDS011;6349;50.904;6.136;2023-07-31T01:52:26;4.15;;;2.58;;
12567;SDS011;6349;50.904;6.136;2023-07-31T01:54:26;5.05;;;2.83;;
12567;SDS011;6349;50.904;6.136;2023-07-31T01:56:27;4.18;;;3.00;;
12567;SDS011;6349;50.904;6.136;2023-07-31T01:58:28;4.22;;;2.88;;
12567;SDS011;6349;50.904;6.136;2023-07-31T02:00:28;3.47;;;2.47;;
12567;SDS011;6349;50.904;6.136;2023-07-31T02:02:29;4.35;;;3.10;;
12567;SDS011;6349;50.904;6.136;2023-07-31T02:04:29;3.75;;;2.78;;
12567;SDS011;6349;50.904;6.136;2023-07-31T02:06:30;5.53;;;3.13;;
12567;SDS011;6349;50.904;6.136;2023-07-31T02:08:31;5.30;;;2.72;;
12567;SDS011;6349;50.904;6.136;2023-07-31T02:10:31;4.40;;;2.90;;
12567;SDS011;6349;50.904;6.136;2023-07-31T02:12:32;6.65;;;3.15;;
12567;SDS011;6349;50.904;6.136;2023-07-31T02:14:33;5.53;;;2.90;;
12567;SDS011;6349;50.904;6.136;2023-07-31T02:16:34;7.28;;;3.10;;
12567;SDS011;6349;50.904;6.136;2023-07-31T02:18:35;4.72;;;2.75;;
12567;SDS011;6349;50.904;6.136;2023-07-31T02:20:35;6.88;;;3.10;;
12567;SDS011;6349;50.904;6.136;2023-07-31T02:22:36;5.20;;;2.97;;
12567;SDS011;6349;50.904;6.136;2023-07-31T02:24:36;6.28;;;2.85;;
12567;SDS011;6349;50.904;6.136;2023-07-31T02:26:37;5.18;;;2.88;;
12567;SDS011;6349;50.904;6.136;2023-07-31T02:28:37;6.07;;;3.10;;
12567;SDS011;6349;50.904;6.136;2023-07-31T02:30:38;5.38;;;2.92;;
12567;SDS011;6349;50.904;6.136;2023-07-31T02:32:39;4.63;;;2.78;;
12567;SDS011;6349;50.904;6.136;2023-07-31T02:34:39;3.28;;;2.78;;
12567;SDS011;6349;50.904;6.136;2023-07-31T02:36:40;6.78;;;3.00;;
12567;SDS011;6349;50.904;6.136;2023-07-31T02:38:40;5.60;;;2.90;;
12567;SDS011;6349;50.904;6.136;2023-07-31T02:40:41;5.15;;;2.72;;
12567;SDS011;6349;50.904;6.136;2023-07-31T02:42:41;4.70;;;2.78;;
12567;SDS011;6349;50.904;6.136;2023-07-31T02:44:42;4.82;;;3.08;;
12567;SDS011;6349;50.904;6.136;2023-07-31T02:46:42;5.40;;;3.25;;
12567;SDS011;6349;50.904;6.136;2023-07-31T02:48:43;5.72;;;3.20;;
12567;SDS011;6349;50.904;6.136;2023-07-31T02:50:44;7.57;;;3.45;;
12567;SDS011;6349;50.904;6.136;2023-07-31T02:52:50;5.90;;;3.10;;
12567;SDS011;6349;50.904;6.136;2023-07-31T02:54:51;5.10;;;3.20;;
12567;SDS011;6349;50.904;6.136;2023-07-31T02:56:51;5.50;;;2.90;;
12567;SDS011;6349;50.904;6.136;2023-07-31T02:58:52;7.80;;;3.60;;
12567;SDS011;6349;50.904;6.136;2023-07-31T03:00:52;4.63;;;3.05;;
12567;SDS011;6349;50.904;6.136;2023-07-31T03:02:53;4.65;;;3.10;;
12567;SDS011;6349;50.904;6.136;2023-07-31T03:04:54;4.55;;;3.33;;
12567;SDS011;6349;50.904;6.136;2023-07-31T03:06:54;4.30;;;3.20;;
12567;SDS011;6349;50.904;6.136;2023-07-31T03:08:55;5.68;;;3.20;;
12567;SDS011;6349;50.904;6.136;2023-07-31T03:10:56;6.18;;;3.30;;
12567;SDS011;6349;50.904;6.136;2023-07-31T03:12:57;4.95;;;2.97;;
12567;SDS011;6349;50.904;6.136;2023-07-31T03:14:57;7.35;;;3.45;;
12567;SDS011;6349;50.904;6.136;2023-07-31T03:16:58;4.53;;;3.00;;
12567;SDS011;6349;50.904;6.136;2023-07-31T03:18:59;5.45;;;3.13;;
12567;SDS011;6349;50.904;6.136;2023-07-31T03:21:00;6.03;;;3.17;;
12567;SDS011;6349;50.904;6.136;2023-07-31T03:23:00;3.97;;;2.90;;
12567;SDS011;6349;50.904;6.136;2023-07-31T03:25:02;6.25;;;3.10;;
12567;SDS011;6349;50.904;6.136;2023-07-31T03:27:03;6.40;;;3.63;;
12567;SDS011;6349;50.904;6.136;2023-07-31T03:29:03;4.72;;;3.20;;
12567;SDS011;6349;50.904;6.136;2023-07-31T03:31:04;5.38;;;3.45;;
12567;SDS011;6349;50.904;6.136;2023-07-31T03:33:05;5.30;;;3.47;;
12567;SDS011;6349;50.904;6.136;2023-07-31T03:35:05;6.85;;;3.60;;
12567;SDS011;6349;50.904;6.136;2023-07-31T03:37:06;8.13;;;4.05;;
12567;SDS011;6349;50.904;6.136;2023-07-31T03:39:06;4.65;;;3.50;;
12567;SDS011;6349;50.904;6.136;2023-07-31T03:41:07;5.57;;;3.10;;
12567;SDS011;6349;50.904;6.136;2023-07-31T03:43:08;4.15;;;3.10;;
12567;SDS011;6349;50.904;6.136;2023-07-31T03:45:08;4.80;;;3.50;;
12567;SDS011;6349;50.904;6.136;2023-07-31T03:47:09;4.35;;;3.33;;
12567;SDS011;6349;50.904;6.136;2023-07-31T03:49:10;3.50;;;2.85;;
12567;SDS011;6349;50.904;6.136;2023-07-31T03:51:10;4.50;;;3.25;;
12567;SDS011;6349;50.904;6.136;2023-07-31T03:53:11;3.85;;;3.25;;
12567;SDS011;6349;50.904;6.136;2023-07-31T03:55:12;3.88;;;3.47;;
12567;SDS011;6349;50.904;6.136;2023-07-31T03:57:12;6.93;;;3.75;;
12567;SDS011;6349;50.904;6.136;2023-07-31T03:59:13;3.50;;;3.20;;
12567;SDS011;6349;50.904;6.136;2023-07-31T04:01:13;3.35;;;3.05;;
12567;SDS011;6349;50.904;6.136;2023-07-31T04:03:14;5.55;;;3.13;;
12567;SDS011;6349;50.904;6.136;2023-07-31T04:05:14;5.65;;;3.15;;
12567;SDS011;6349;50.904;6.136;2023-07-31T04:07:15;4.57;;;3.40;;
12567;SDS011;6349;50.904;6.136;2023-07-31T04:09:16;5.70;;;3.50;;
12567;SDS011;6349;50.904;6.136;2023-07-31T04:11:16;5.68;;;3.30;;
12567;SDS011;6349;50.904;6.136;2023-07-31T04:13:17;6.68;;;3.38;;
12567;SDS011;6349;50.904;6.136;2023-07-31T04:15:17;3.88;;;3.10;;
12567;SDS011;6349;50.904;6.136;2023-07-31T04:17:18;4.63;;;3.08;;
12567;SDS011;6349;50.904;6.136;2023-07-31T04:19:18;4.50;;;3.35;;
12567;SDS011;6349;50.904;6.136;2023-07-31T04:21:19;3.90;;;3.05;;
12567;SDS011;6349;50.904;6.136;2023-07-31T04:23:19;3.35;;;2.92;;
12567;SDS011;6349;50.904;6.136;2023-07-31T04:25:20;4.07;;;3.03;;
12567;SDS011;6349;50.904;6.136;2023-07-31T04:27:21;4.80;;;3.00;;
12567;SDS011;6349;50.904;6.136;2023-07-31T04:29:21;3.72;;;2.92;;
12567;SDS011;6349;50.904;6.136;2023-07-31T04:31:22;3.97;;;2.95;;
12567;SDS011;6349;50.904;6.136;2023-07-31T04:33:22;3.63;;;2.45;;
12567;SDS011;6349;50.904;6.136;2023-07-31T04:35:23;3.45;;;3.00;;
12567;SDS011;6349;50.904;6.136;2023-07-31T04:37:23;4.93;;;3.13;;
12567;SDS011;6349;50.904;6.136;2023-07-31T04:39:24;5.53;;;3.45;;
12567;SDS011;6349;50.904;6.136;2023-07-31T04:41:25;4.72;;;3.20;;
12567;SDS011;6349;50.904;6.136;2023-07-31T04:43:25;5.53;;;3.20;;
12567;SDS011;6349;50.904;6.136;2023-07-31T04:45:26;5.63;;;2.72;;
12567;SDS011;6349;50.904;6.136;2023-07-31T04:47:26;3.20;;;2.90;;
12567;SDS011;6349;50.904;6.136;2023-07-31T04:49:27;3.50;;;2.85;;
12567;SDS011;6349;50.904;6.136;2023-07-31T04:51:27;4.18;;;2.85;;
12567;SDS011;6349;50.904;6.136;2023-07-31T04:53:28;3.97;;;3.30;;
12567;SDS011;6349;50.904;6.136;2023-07-31T04:55:28;3.40;;;2.80;;
12567;SDS011;6349;50.904;6.136;2023-07-31T04:57:29;4.55;;;3.15;;
12567;SDS011;6349;50.904;6.136;2023-07-31T04:59:29;4.97;;;3.17;;
12567;SDS011;6349;50.904;6.136;2023-07-31T05:01:31;6.20;;;3.25;;
12567;SDS011;6349;50.904;6.136;2023-07-31T05:03:32;4.70;;;3.00;;
12567;SDS011;6349;50.904;6.136;2023-07-31T05:05:32;3.75;;;2.60;;
12567;SDS011;6349;50.904;6.136;2023-07-31T05:07:33;4.65;;;2.80;;
12567;SDS011;6349;50.904;6.136;2023-07-31T05:09:33;4.13;;;2.63;;
12567;SDS011;6349;50.904;6.136;2023-07-31T05:11:34;4.70;;;2.40;;
12567;SDS011;6349;50.904;6.136;2023-07-31T05:13:35;3.30;;;2.83;;
12567;SDS011;6349;50.904;6.136;2023-07-31T05:15:35;4.35;;;2.60;;
12567;SDS011;6349;50.904;6.136;2023-07-31T05:17:36;4.50;;;2.53;;
12567;SDS011;6349;50.904;6.136;2023-07-31T05:19:37;3.50;;;2.60;;
12567;SDS011;6349;50.904;6.136;2023-07-31T05:21:37;4.93;;;2.85;;
12567;SDS011;6349;50.904;6.136;2023-07-31T05:23:38;6.75;;;2.78;;
12567;SDS011;6349;50.904;6.136;2023-07-31T05:25:38;3.80;;;2.53;;
12567;SDS011;6349;50.904;6.136;2023-07-31T05:27:39;3.72;;;2.67;;
12567;SDS011;6349;50.904;6.136;2023-07-31T05:29:40;3.13;;;2.42;;
12567;SDS011;6349;50.904;6.136;2023-07-31T05:31:41;2.50;;;2.30;;
12567;SDS011;6349;50.904;6.136;2023-07-31T05:33:41;3.60;;;2.38;;
12567;SDS011;6349;50.904;6.136;2023-07-31T05:35:42;4.97;;;2.63;;
12567;SDS011;6349;50.904;6.136;2023-07-31T05:37:44;4.97;;;2.60;;
12567;SDS011;6349;50.904;6.136;2023-07-31T05:39:45;4.55;;;2.70;;
12567;SDS011;6349;50.904;6.136;2023-07-31T05:41:46;3.72;;;2.67;;
12567;SDS011;6349;50.904;6.136;2023-07-31T05:43:47;6.53;;;2.78;;
12567;SDS011;6349;50.904;6.136;2023-07-31T05:45:47;3.30;;;2.60;;
12567;SDS011;6349;50.904;6.136;2023-07-31T05:47:48;3.10;;;2.67;;
12567;SDS011;6349;50.904;6.136;2023-07-31T05:49:49;4.68;;;2.35;;
12567;SDS011;6349;50.904;6.136;2023-07-31T05:51:52;4.13;;;2.55;;
12567;SDS011;6349;50.904;6.136;2023-07-31T05:53:53;3.30;;;2.75;;
12567;SDS011;6349;50.904;6.136;2023-07-31T05:55:53;3.35;;;2.30;;
12567;SDS011;6349;50.904;6.136;2023-07-31T05:57:54;3.83;;;2.53;;
12567;SDS011;6349;50.904;6.136;2023-07-31T05:59:55;3.80;;;2.60;;
12567;SDS011;6349;50.904;6.136;2023-07-31T06:01:55;4.18;;;2.80;;
12567;SDS011;6349;50.904;6.136;2023-07-31T06:03:56;3.10;;;2.78;;
12567;SDS011;6349;50.904;6.136;2023-07-31T06:05:56;3.45;;;2.78;;
12567;SDS011;6349;50.904;6.136;2023-07-31T06:07:57;4.85;;;2.70;;
12567;SDS011;6349;50.904;6.136;2023-07-31T06:09:57;3.85;;;2.53;;
12567;SDS011;6349;50.904;6.136;2023-07-31T06:12:04;3.58;;;2.88;;
12567;SDS011;6349;50.904;6.136;2023-07-31T06:14:05;5.22;;;3.00;;
12567;SDS011;6349;50.904;6.136;2023-07-31T06:16:05;6.90;;;2.75;;
12567;SDS011;6349;50.904;6.136;2023-07-31T06:18:06;4.80;;;2.50;;
12567;SDS011;6349;50.904;6.136;2023-07-31T06:20:07;4.43;;;2.90;;
12567;SDS011;6349;50.904;6.136;2023-07-31T06:22:08;5.20;;;2.80;;
12567;SDS011;6349;50.904;6.136;2023-07-31T06:24:09;4.20;;;2.60;;
12567;SDS011;6349;50.904;6.136;2023-07-31T06:26:09;4.30;;;2.67;;
12567;SDS011;6349;50.904;6.136;2023-07-31T06:28:10;5.43;;;2.92;;
12567;SDS011;6349;50.904;6.136;2023-07-31T06:30:10;4.13;;;2.72;;
12567;SDS011;6349;50.904;6.136;2023-07-31T06:32:11;4.93;;;2.47;;
12567;SDS011;6349;50.904;6.136;2023-07-31T06:34:12;4.85;;;2.85;;
12567;SDS011;6349;50.904;6.136;2023-07-31T06:36:12;4.78;;;2.75;;
12567;SDS011;6349;50.904;6.136;2023-07-31T06:38:13;5.93;;;2.78;;
12567;SDS011;6349;50.904;6.136;2023-07-31T06:40:14;4.10;;;2.85;;
12567;SDS011;6349;50.904;6.136;2023-07-31T06:42:14;5.03;;;2.97;;
12567;SDS011;6349;50.904;6.136;2023-07-31T06:44:15;3.53;;;2.55;;
12567;SDS011;6349;50.904;6.136;2023-07-31T06:46:15;6.13;;;2.60;;
12567;SDS011;6349;50.904;6.136;2023-07-31T06:48:16;3.83;;;2.67;;
12567;SDS011;6349;50.904;6.136;2023-07-31T06:50:16;3.33;;;2.58;;
12567;SDS011;6349;50.904;6.136;2023-07-31T06:52:17;5.18;;;2.50;;
12567;SDS011;6349;50.904;6.136;2023-07-31T06:54:17;4.05;;;2.47;;
12567;SDS011;6349;50.904;6.136;2023-07-31T06:56:18;3.50;;;2.58;;
12567;SDS011;6349;50.904;6.136;2023-07-31T06:58:18;2.78;;;2.28;;
12567;SDS011;6349;50.904;6.136;2023-07-31T07:00:19;5.53;;;2.60;;
12567;SDS011;6349;50.904;6.136;2023-07-31T07:02:21;5.25;;;2.70;;
12567;SDS011;6349;50.904;6.136;2023-07-31T07:04:21;2.75;;;2.50;;
12567;SDS011;6349;50.904;6.136;2023-07-31T07:06:22;3.83;;;2.72;;
12567;SDS011;6349;50.904;6.136;2023-07-31T07:08:23;4.43;;;2.40;;
12567;SDS011;6349;50.904;6.136;2023-07-31T07:10:24;4.10;;;2.60;;
12567;SDS011;6349;50.904;6.136;2023-07-31T07:12:25;4.93;;;2.80;;
12567;SDS011;6349;50.904;6.136;2023-07-31T07:14:27;4.22;;;2.55;;
12567;SDS011;6349;50.904;6.136;2023-07-31T07:16:28;2.90;;;2.50;;
12567;SDS011;6349;50.904;6.136;2023-07-31T07:18:28;4.15;;;2.55;;
12567;SDS011;6349;50.904;6.136;2023-07-31T07:20:29;4.28;;;2.70;;
12567;SDS011;6349;50.904;6.136;2023-07-31T07:22:29;4.65;;;2.67;;
12567;SDS011;6349;50.904;6.136;2023-07-31T07:24:30;3.60;;;2.50;;
12567;SDS011;6349;50.904;6.136;2023-07-31T07:26:30;4.90;;;2.80;;
12567;SDS011;6349;50.904;6.136;2023-07-31T07:28:31;3.78;;;2.50;;
12567;SDS011;6349;50.904;6.136;2023-07-31T07:30:32;3.97;;;2.60;;
12567;SDS011;6349;50.904;6.136;2023-07-31T07:32:32;6.30;;;2.50;;
12567;SDS011;6349;50.904;6.136;2023-07-31T07:34:33;5.03;;;2.38;;
12567;SDS011;6349;50.904;6.136;2023-07-31T07:36:33;6.43;;;2.70;;
12567;SDS011;6349;50.904;6.136;2023-07-31T07:38:34;4.00;;;2.60;;
12567;SDS011;6349;50.904;6.136;2023-07-31T07:40:38;5.10;;;2.60;;
12567;SDS011;6349;50.904;6.136;2023-07-31T07:42:39;4.82;;;2.60;;
12567;SDS011;6349;50.904;6.136;2023-07-31T07:44:40;5.22;;;3.17;;
12567;SDS011;6349;50.904;6.136;2023-07-31T07:46:40;3.83;;;2.70;;
12567;SDS011;6349;50.904;6.136;2023-07-31T07:48:41;5.50;;;2.67;;
12567;SDS011;6349;50.904;6.136;2023-07-31T07:50:41;4.10;;;2.75;;
12567;SDS011;6349;50.904;6.136;2023-07-31T07:52:42;3.03;;;2.30;;
12567;SDS011;6349;50.904;6.136;2023-07-31T07:54:42;4.85;;;2.60;;
12567;SDS011;6349;50.904;6.136;2023-07-31T07:56:43;3.53;;;2.58;;
12567;SDS011;6349;50.904;6.136;2023-07-31T07:58:43;5.38;;;2.70;;
12567;SDS011;6349;50.904;6.136;2023-07-31T08:00:51;3.40;;;2.40;;
12567;SDS011;6349;50.904;6.136;2023-07-31T08:02:52;5.22;;;2.78;;
12567;SDS011;6349;50.904;6.136;2023-07-31T08:04:52;3.10;;;2.60;;
12567;SDS011;6349;50.904;6.136;2023-07-31T08:06:53;4.47;;;2.80;;
12567;SDS011;6349;50.904;6.136;2023-07-31T08:08:53;4.22;;;2.60;;
12567;SDS011;6349;50.904;6.136;2023-07-31T08:10:54;4.38;;;2.63;;
12567;SDS011;6349;50.904;6.136;2023-07-31T08:12:54;3.17;;;2.47;;
12567;SDS011;6349;50.904;6.136;2023-07-31T08:14:55;5.05;;;2.88;;
12567;SDS011;6349;50.904;6.136;2023-07-31T08:16:56;4.55;;;2.58;;
12567;SDS011;6349;50.904;6.136;2023-07-31T08:18:57;3.38;;;2.70;;
12567;SDS011;6349;50.904;6.136;2023-07-31T08:20:57;2.88;;;2.40;;
12567;SDS011;6349;50.904;6.136;2023-07-31T08:22:58;3.10;;;2.65;;
12567;SDS011;6349;50.904;6.136;2023-07-31T08:24:58;4.65;;;2.58;;
12567;SDS011;6349;50.904;6.136;2023-07-31T08:26:59;3.08;;;2.63;;
12567;SDS011;6349;50.904;6.136;2023-07-31T08:28:59;3.28;;;2.67;;
12567;SDS011;6349;50.904;6.136;2023-07-31T08:31:00;5.47;;;2.63;;
12567;SDS011;6349;50.904;6.136;2023-07-31T08:33:00;4.88;;;2.67;;
12567;SDS011;6349;50.904;6.136;2023-07-31T08:35:01;4.35;;;2.60;;
12567;SDS011;6349;50.904;6.136;2023-07-31T08:37:02;7.53;;;3.08;;
12567;SDS011;6349;50.904;6.136;2023-07-31T08:39:03;2.78;;;2.50;;
12567;SDS011;6349;50.904;6.136;2023-07-31T08:41:03;4.43;;;2.78;;
12567;SDS011;6349;50.904;6.136;2023-07-31T08:43:05;3.10;;;2.42;;
12567;SDS011;6349;50.904;6.136;2023-07-31T08:45:06;4.72;;;2.55;;
12567;SDS011;6349;50.904;6.136;2023-07-31T08:47:08;4.13;;;2.60;;
12567;SDS011;6349;50.904;6.136;2023-07-31T08:49:09;3.35;;;2.60;;
12567;SDS011;6349;50.904;6.136;2023-07-31T08:51:11;4.15;;;2.70;;
12567;SDS011;6349;50.904;6.136;2023-07-31T08:53:11;2.63;;;2.42;;
12567;SDS011;6349;50.904;6.136;2023-07-31T08:55:12;3.60;;;2.70;;
12567;SDS011;6349;50.904;6.136;2023-07-31T08:57:13;3.67;;;2.78;;
12567;SDS011;6349;50.904;6.136;2023-07-31T08:59:14;4.05;;;2.40;;
12567;SDS011;6349;50.904;6.136;2023-07-31T09:01:17;5.70;;;3.05;;
12567;SDS011;6349;50.904;6.136;2023-07-31T09:03:18;5.05;;;2.60;;
12567;SDS011;6349;50.904;6.136;2023-07-31T09:05:20;3.38;;;2.35;;
12567;SDS011;6349;50.904;6.136;2023-07-31T09:07:21;3.78;;;2.85;;
12567;SDS011;6349;50.904;6.136;2023-07-31T09:09:22;3.85;;;2.50;;
12567;SDS011;6349;50.904;6.136;2023-07-31T09:11:23;5.97;;;2.78;;
12567;SDS011;6349;50.904;6.136;2023-07-31T09:13:25;4.30;;;2.70;;
12567;SDS011;6349;50.904;6.136;2023-07-31T09:15:27;3.72;;;2.55;;
12567;SDS011;6349;50.904;6.136;2023-07-31T09:17:29;4.85;;;2.60;;
12567;SDS011;6349;50.904;6.136;2023-07-31T09:19:34;4.32;;;2.60;;
12567;SDS011;6349;50.904;6.136;2023-07-31T09:21:47;4.47;;;2.70;;
12567;SDS011;6349;50.904;6.136;2023-07-31T09:23:49;4.60;;;2.90;;
12567;SDS011;6349;50.904;6.136;2023-07-31T09:25:52;3.65;;;2.60;;
12567;SDS011;6349;50.904;6.136;2023-07-31T09:29:59;3.97;;;2.72;;
12567;SDS011;6349;50.904;6.136;2023-07-31T09:32:00;4.07;;;3.05;;
12567;SDS011;6349;50.904;6.136;2023-07-31T09:34:00;4.80;;;2.83;;
12567;SDS011;6349;50.904;6.136;2023-07-31T09:36:01;5.80;;;3.00;;
12567;SDS011;6349;50.904;6.136;2023-07-31T09:38:05;4.53;;;2.78;;
12567;SDS011;6349;50.904;6.136;2023-07-31T09:40:07;2.92;;;2.45;;
12567;SDS011;6349;50.904;6.136;2023-07-31T09:42:08;2.95;;;2.40;;
12567;SDS011;6349;50.904;6.136;2023-07-31T09:44:09;4.22;;;3.03;;
12567;SDS011;6349;50.904;6.136;2023-07-31T09:46:13;4.95;;;2.85;;
12567;SDS011;6349;50.904;6.136;2023-07-31T09:48:14;4.78;;;2.97;;
12567;SDS011;6349;50.904;6.136;2023-07-31T09:50:16;4.20;;;2.58;;
12567;SDS011;6349;50.904;6.136;2023-07-31T09:52:17;4.25;;;2.75;;
12567;SDS011;6349;50.904;6.136;2023-07-31T09:54:18;5.68;;;3.05;;
12567;SDS011;6349;50.904;6.136;2023-07-31T09:56:19;3.55;;;2.70;;
12567;SDS011;6349;50.904;6.136;2023-07-31T09:58:22;3.38;;;2.97;;
12567;SDS011;6349;50.904;6.136;2023-07-31T10:00:23;4.28;;;2.60;;
12567;SDS011;6349;50.904;6.136;2023-07-31T10:02:25;5.57;;;3.03;;
12567;SDS011;6349;50.904;6.136;2023-07-31T10:04:27;4.20;;;2.90;;
12567;SDS011;6349;50.904;6.136;2023-07-31T10:06:29;4.43;;;2.90;;
12567;SDS011;6349;50.904;6.136;2023-07-31T10:08:30;2.90;;;2.45;;
12567;SDS011;6349;50.904;6.136;2023-07-31T10:10:35;3.08;;;2.78;;
12567;SDS011;6349;50.904;6.136;2023-07-31T10:12:37;3.60;;;2.30;;
12567;SDS011;6349;50.904;6.136;2023-07-31T10:14:38;3.03;;;2.20;;
12567;SDS011;6349;50.904;6.136;2023-07-31T10:16:41;3.28;;;2.25;;
12567;SDS011;6349;50.904;6.136;2023-07-31T10:18:43;4.30;;;2.50;;
12567;SDS011;6349;50.904;6.136;2023-07-31T10:20:45;3.38;;;1.90;;
12567;SDS011;6349;50.904;6.136;2023-07-31T10:22:46;2.00;;;1.63;;
12567;SDS011;6349;50.904;6.136;2023-07-31T10:24:48;2.45;;;1.77;;
12567;SDS011;6349;50.904;6.136;2023-07-31T10:26:52;3.30;;;2.22;;
12567;SDS011;6349;50.904;6.136;2023-07-31T10:28:54;2.78;;;1.80;;
12567;SDS011;6349;50.904;6.136;2023-07-31T10:30:55;2.70;;;2.17;;
12567;SDS011;6349;50.904;6.136;2023-07-31T10:32:56;2.50;;;1.80;;
12567;SDS011;6349;50.904;6.136;2023-07-31T10:34:58;2.20;;;1.88;;
12567;SDS011;6349;50.904;6.136;2023-07-31T10:39:35;2.20;;;1.70;;
12567;SDS011;6349;50.904;6.136;2023-07-31T10:41:38;3.40;;;1.90;;
12567;SDS011;6349;50.904;6.136;2023-07-31T10:43:38;2.70;;;1.60;;
12567;SDS011;6349;50.904;6.136;2023-07-31T10:45:42;2.47;;;1.65;;
12567;SDS011;6349;50.904;6.136;2023-07-31T10:47:44;1.55;;;1.45;;
12567;SDS011;6349;50.904;6.136;2023-07-31T10:49:46;2.47;;;1.60;;
12567;SDS011;6349;50.904;6.136;2023-07-31T10:51:49;1.77;;;1.40;;
12567;SDS011;6349;50.904;6.136;2023-07-31T10:53:49;1.50;;;1.40;;
12567;SDS011;6349;50.904;6.136;2023-07-31T10:56:15;2.47;;;1.50;;
12567;SDS011;6349;50.904;6.136;2023-07-31T10:58:19;1.75;;;1.63;;
12567;SDS011;6349;50.904;6.136;2023-07-31T11:00:27;2.28;;;1.48;;
12567;SDS011;6349;50.904;6.136;2023-07-31T11:02:28;1.38;;;1.27;;
12567;SDS011;6349;50.904;6.136;2023-07-31T11:04:33;1.50;;;1.40;;
12567;SDS011;6349;50.904;6.136;2023-07-31T11:06:34;2.42;;;1.83;;
12567;SDS011;6349;50.904;6.136;2023-07-31T11:08:43;1.80;;;1.35;;
12567;SDS011;6349;50.904;6.136;2023-07-31T11:10:49;1.98;;;1.50;;
12567;SDS011;6349;50.904;6.136;2023-07-31T11:12:51;1.73;;;1.63;;
12567;SDS011;6349;50.904;6.136;2023-07-31T11:14:57;1.67;;;1.52;;
12567;SDS011;6349;50.904;6.136;2023-07-31T11:16:58;1.95;;;1.40;;
12567;SDS011;6349;50.904;6.136;2023-07-31T11:18:58;3.17;;;1.63;;
12567;SDS011;6349;50.904;6.136;2023-07-31T11:20:59;1.63;;;1.50;;
12567;SDS011;6349;50.904;6.136;2023-07-31T11:23:00;1.92;;;1.50;;
12567;SDS011;6349;50.904;6.136;2023-07-31T11:25:03;1.95;;;1.77;;
12567;SDS011;6349;50.904;6.136;2023-07-31T11:27:07;2.17;;;1.75;;
12567;SDS011;6349;50.904;6.136;2023-07-31T11:29:11;3.22;;;1.60;;
12567;SDS011;6349;50.904;6.136;2023-07-31T11:31:11;2.25;;;1.70;;
12567;SDS011;6349;50.904;6.136;2023-07-31T11:33:12;1.95;;;1.75;;
12567;SDS011;6349;50.904;6.136;2023-07-31T11:35:13;1.92;;;1.58;;
12567;SDS011;6349;50.904;6.136;2023-07-31T11:37:14;2.70;;;1.90;;
12567;SDS011;6349;50.904;6.136;2023-07-31T11:39:15;2.00;;;1.90;;
12567;SDS011;6349;50.904;6.136;2023-07-31T11:41:15;3.67;;;1.80;;
12567;SDS011;6349;50.904;6.136;2023-07-31T11:43:17;2.20;;;1.98;;
12567;SDS011;6349;50.904;6.136;2023-07-31T11:45:18;2.35;;;2.00;;
12567;SDS011;6349;50.904;6.136;2023-07-31T11:47:19;2.35;;;2.05;;
12567;SDS011;6349;50.904;6.136;2023-07-31T11:49:20;2.40;;;2.20;;
12567;SDS011;6349;50.904;6.136;2023-07-31T11:51:21;2.40;;;1.98;;
12567;SDS011;6349;50.904;6.136;2023-07-31T11:53:43;4.40;;;2.25;;
12567;SDS011;6349;50.904;6.136;2023-07-31T11:55:44;3.25;;;2.17;;
12567;SDS011;6349;50.904;6.136;2023-07-31T11:57:45;4.53;;;2.38;;
12567;SDS011;6349;50.904;6.136;2023-07-31T11:59:46;2.97;;;2.38;;
12567;SDS011;6349;50.904;6.136;2023-07-31T12:01:47;2.95;;;2.10;;
12567;SDS011;6349;50.904;6.136;2023-07-31T12:03:50;3.00;;;2.47;;
12567;SDS011;6349;50.904;6.136;2023-07-31T12:05:52;3.80;;;2.50;;
12567;SDS011;6349;50.904;6.136;2023-07-31T12:07:54;3.33;;;2.60;;
12567;SDS011;6349;50.904;6.136;2023-07-31T12:09:56;3.03;;;2.45;;
12567;SDS011;6349;50.904;6.136;2023-07-31T12:11:57;3.13;;;2.50;;
12567;SDS011;6349;50.904;6.136;2023-07-31T12:13:57;4.25;;;2.65;;
12567;SDS011;6349;50.904;6.136;2023-07-31T12:16:00;2.83;;;2.50;;
12567;SDS011;6349;50.904;6.136;2023-07-31T12:18:07;3.75;;;2.65;;
12567;SDS011;6349;50.904;6.136;2023-07-31T12:20:09;5.78;;;2.88;;
12567;SDS011;6349;50.904;6.136;2023-07-31T12:22:13;4.45;;;2.60;;
12567;SDS011;6349;50.904;6.136;2023-07-31T12:24:15;3.35;;;2.53;;
12567;SDS011;6349;50.904;6.136;2023-07-31T12:26:18;3.33;;;2.75;;
12567;SDS011;6349;50.904;6.136;2023-07-31T12:28:21;3.47;;;3.05;;
12567;SDS011;6349;50.904;6.136;2023-07-31T12:30:29;2.53;;;2.30;;